AXY735 SBDB-SBPO
Flight info
| Callsign | AXY735 |
|---|---|
| Flight time | 0h 58m |
| Altitude | 39000 |
| Route | ARVOP UL216 FOZ UM548 VUGLA |
| Aircraft | C750/M-SBDE3FGHRWXY/S |
Departure
| Time | 2026-05-05 08:02 |
|---|---|
| Airport | Bonito Airport (SBDB) |
Arrival
| Time | 2026-05-05 09:00 |
|---|---|
| Airport | Juvenal Loureiro Cardoso Airport (SBPO) |
| Time | Latitude | Longitude | Altitude | Speed | Heading |
|---|---|---|---|---|---|
| 2026-05-05 07:52 | -21.24425 | -56.45074 | 1095 ft | 0 kts | 166° |
| 2026-05-05 07:58 | -21.24430 | -56.45087 | 1095 ft | 4 kts | 280° |
| 2026-05-05 07:58 | -21.24401 | -56.45137 | 1095 ft | 11 kts | 279° |
| 2026-05-05 07:58 | -21.24418 | -56.45211 | 1095 ft | 10 kts | 255° |
| 2026-05-05 07:59 | -21.24434 | -56.45288 | 1093 ft | 11 kts | 269° |
| 2026-05-05 07:59 | -21.24367 | -56.45336 | 1093 ft | 14 kts | 346° |
| 2026-05-05 07:59 | -21.24276 | -56.45361 | 1094 ft | 13 kts | 345° |
| 2026-05-05 07:59 | -21.24197 | -56.45383 | 1096 ft | 11 kts | 345° |
| 2026-05-05 08:00 | -21.24110 | -56.45407 | 1093 ft | 16 kts | 346° |
| 2026-05-05 08:00 | -21.23997 | -56.45436 | 1096 ft | 17 kts | 346° |
| 2026-05-05 08:00 | -21.23899 | -56.45475 | 1096 ft | 11 kts | 324° |
| 2026-05-05 08:00 | -21.23872 | -56.45475 | 1094 ft | 3 kts | 86° |
| 2026-05-05 08:01 | -21.23898 | -56.45458 | 1094 ft | 5 kts | 164° |
| 2026-05-05 08:01 | -21.24053 | -56.45416 | 1097 ft | 69 kts | 166° |
| 2026-05-05 08:01 | -21.24867 | -56.45203 | 1187 ft | 148 kts | 166° |
| 2026-05-05 08:01 | -21.25909 | -56.44927 | 1761 ft | 165 kts | 164° |
| 2026-05-05 08:02 | -21.27120 | -56.44597 | 2169 ft | 194 kts | 167° |
| 2026-05-05 08:02 | -21.28583 | -56.44769 | 2443 ft | 228 kts | 191° |
| 2026-05-05 08:02 | -21.30213 | -56.45126 | 2909 ft | 250 kts | 190° |
| 2026-05-05 08:02 | -21.32020 | -56.45465 | 3372 ft | 277 kts | 189° |
| 2026-05-05 08:03 | -21.33969 | -56.45821 | 4266 ft | 286 kts | 190° |
| 2026-05-05 08:03 | -21.35961 | -56.46202 | 5202 ft | 296 kts | 191° |
| 2026-05-05 08:03 | -21.38018 | -56.46598 | 6114 ft | 303 kts | 191° |
| 2026-05-05 08:03 | -21.40114 | -56.46997 | 7055 ft | 308 kts | 191° |
| 2026-05-05 08:04 | -21.42219 | -56.47396 | 8203 ft | 306 kts | 191° |
| 2026-05-05 08:04 | -21.44310 | -56.47794 | 9426 ft | 304 kts | 191° |
| 2026-05-05 08:04 | -21.46398 | -56.48193 | 10416 ft | 309 kts | 191° |
| 2026-05-05 08:04 | -21.48596 | -56.48613 | 10723 ft | 335 kts | 191° |
| 2026-05-05 08:05 | -21.50954 | -56.49062 | 10865 ft | 362 kts | 191° |
| 2026-05-05 08:05 | -21.53475 | -56.49543 | 11516 ft | 368 kts | 191° |
| 2026-05-05 08:05 | -21.55999 | -56.50023 | 12382 ft | 369 kts | 191° |
| 2026-05-05 08:05 | -21.58559 | -56.50307 | 13024 ft | 376 kts | 177° |
| 2026-05-05 08:06 | -21.61160 | -56.49987 | 13746 ft | 376 kts | 179° |
| 2026-05-05 08:06 | -21.63773 | -56.50152 | 14461 ft | 377 kts | 188° |
| 2026-05-05 08:06 | -21.66351 | -56.50683 | 15123 ft | 379 kts | 194° |
| 2026-05-05 08:06 | -21.68913 | -56.51382 | 15794 ft | 381 kts | 195° |
| 2026-05-05 08:07 | -21.71518 | -56.51992 | 16485 ft | 385 kts | 192° |
| 2026-05-05 08:07 | -21.74173 | -56.52478 | 17188 ft | 388 kts | 190° |
| 2026-05-05 08:07 | -21.76801 | -56.52994 | 17904 ft | 391 kts | 192° |
| 2026-05-05 08:07 | -21.79514 | -56.53606 | 18608 ft | 394 kts | 193° |
| 2026-05-05 08:08 | -21.82178 | -56.54196 | 19274 ft | 397 kts | 192° |
| 2026-05-05 08:08 | -21.84904 | -56.54756 | 19959 ft | 401 kts | 192° |
| 2026-05-05 08:08 | -21.87651 | -56.55323 | 20650 ft | 404 kts | 193° |
| 2026-05-05 08:08 | -21.90425 | -56.55920 | 21351 ft | 407 kts | 193° |
| 2026-05-05 08:09 | -21.93215 | -56.56521 | 22036 ft | 411 kts | 193° |
| 2026-05-05 08:09 | -21.96038 | -56.57117 | 22734 ft | 415 kts | 193° |
| 2026-05-05 08:09 | -21.98885 | -56.57716 | 23417 ft | 418 kts | 194° |
| 2026-05-05 08:09 | -22.01755 | -56.58327 | 24001 ft | 422 kts | 194° |
| 2026-05-05 08:10 | -22.04646 | -56.58945 | 24587 ft | 425 kts | 194° |
| 2026-05-05 08:10 | -22.07563 | -56.59565 | 25162 ft | 429 kts | 194° |
| 2026-05-05 08:10 | -22.10506 | -56.60189 | 25739 ft | 432 kts | 194° |
| 2026-05-05 08:10 | -22.13468 | -56.60820 | 26296 ft | 436 kts | 194° |
| 2026-05-05 08:11 | -22.16456 | -56.61457 | 26859 ft | 439 kts | 194° |
| 2026-05-05 08:11 | -22.19513 | -56.61878 | 27361 ft | 448 kts | 186° |
| 2026-05-05 08:11 | -22.22649 | -56.61794 | 27930 ft | 455 kts | 178° |
| 2026-05-05 08:11 | -22.25789 | -56.61169 | 28441 ft | 463 kts | 169° |
| 2026-05-05 08:12 | -22.28826 | -56.60071 | 28960 ft | 471 kts | 161° |
| 2026-05-05 08:12 | -22.31776 | -56.58475 | 29455 ft | 479 kts | 154° |
| 2026-05-05 08:12 | -22.34667 | -56.56640 | 29956 ft | 482 kts | 153° |
| 2026-05-05 08:12 | -22.37592 | -56.54814 | 30394 ft | 485 kts | 154° |
| 2026-05-05 08:13 | -22.40532 | -56.53021 | 30892 ft | 486 kts | 155° |
| 2026-05-05 08:13 | -22.43466 | -56.51212 | 31560 ft | 482 kts | 155° |
| 2026-05-05 08:13 | -22.46353 | -56.49401 | 32322 ft | 477 kts | 155° |
| 2026-05-05 08:13 | -22.49183 | -56.47637 | 33065 ft | 472 kts | 156° |
| 2026-05-05 08:14 | -22.52028 | -56.45880 | 33824 ft | 467 kts | 157° |
| 2026-05-05 08:14 | -22.54843 | -56.44138 | 34498 ft | 463 kts | 158° |
| 2026-05-05 08:14 | -22.57631 | -56.42401 | 35047 ft | 462 kts | 158° |
| 2026-05-05 08:14 | -22.60417 | -56.40666 | 35572 ft | 462 kts | 158° |
| 2026-05-05 08:15 | -22.63197 | -56.38939 | 36149 ft | 461 kts | 159° |
| 2026-05-05 08:15 | -22.65976 | -56.37210 | 36712 ft | 460 kts | 159° |
| 2026-05-05 08:15 | -22.68749 | -56.35483 | 37263 ft | 459 kts | 159° |
| 2026-05-05 08:15 | -22.71516 | -56.33758 | 37832 ft | 458 kts | 159° |
| 2026-05-05 08:16 | -22.74277 | -56.32038 | 38408 ft | 457 kts | 159° |
| 2026-05-05 08:16 | -22.77030 | -56.30320 | 38936 ft | 456 kts | 159° |
| 2026-05-05 08:16 | -22.79820 | -56.28587 | 38995 ft | 467 kts | 159° |
| 2026-05-05 08:16 | -22.82672 | -56.26816 | 38999 ft | 479 kts | 159° |
| 2026-05-05 08:17 | -22.85593 | -56.24988 | 39015 ft | 490 kts | 159° |
| 2026-05-05 08:17 | -22.88578 | -56.23115 | 39010 ft | 500 kts | 159° |
| 2026-05-05 08:17 | -22.94655 | -56.19318 | 39013 ft | 513 kts | 159° |
| 2026-05-05 08:18 | -23.00868 | -56.15420 | 39009 ft | 517 kts | 158° |
| 2026-05-05 08:18 | -23.07107 | -56.11513 | 39012 ft | 517 kts | 158° |
| 2026-05-05 08:19 | -23.13332 | -56.07603 | 39006 ft | 515 kts | 159° |
| 2026-05-05 08:19 | -23.19545 | -56.03705 | 39006 ft | 516 kts | 159° |
| 2026-05-05 08:20 | -23.25771 | -55.99786 | 39010 ft | 517 kts | 159° |
| 2026-05-05 08:20 | -23.31997 | -55.95869 | 39033 ft | 516 kts | 159° |
| 2026-05-05 08:21 | -23.38209 | -55.91953 | 39019 ft | 516 kts | 159° |
| 2026-05-05 08:21 | -23.44422 | -55.88034 | 39025 ft | 516 kts | 159° |
| 2026-05-05 08:22 | -23.49586 | -55.84772 | 39023 ft | 516 kts | 159° |
| 2026-05-05 08:22 | -23.56804 | -55.80210 | 39020 ft | 516 kts | 159° |
| 2026-05-05 08:23 | -23.63021 | -55.76274 | 39027 ft | 516 kts | 159° |
| 2026-05-05 08:23 | -23.68190 | -55.73000 | 39025 ft | 517 kts | 159° |
| 2026-05-05 08:24 | -23.74421 | -55.69049 | 39027 ft | 518 kts | 159° |
| 2026-05-05 08:24 | -23.80648 | -55.65096 | 39024 ft | 518 kts | 159° |
| 2026-05-05 08:25 | -23.86893 | -55.61126 | 39026 ft | 518 kts | 159° |
| 2026-05-05 08:25 | -23.93123 | -55.57163 | 39032 ft | 518 kts | 159° |
| 2026-05-05 08:26 | -23.99356 | -55.53192 | 39030 ft | 518 kts | 159° |
| 2026-05-05 08:26 | -24.05586 | -55.49220 | 39027 ft | 518 kts | 159° |
| 2026-05-05 08:27 | -24.11806 | -55.45249 | 39033 ft | 518 kts | 159° |
| 2026-05-05 08:27 | -24.18005 | -55.41286 | 39034 ft | 518 kts | 159° |
| 2026-05-05 08:28 | -24.24234 | -55.37301 | 39031 ft | 518 kts | 159° |
| 2026-05-05 08:28 | -24.30458 | -55.33313 | 39036 ft | 518 kts | 159° |
| 2026-05-05 08:29 | -24.36678 | -55.29324 | 39041 ft | 518 kts | 159° |
| 2026-05-05 08:30 | -24.45958 | -55.23363 | 39049 ft | 517 kts | 159° |
| 2026-05-05 08:30 | -24.52174 | -55.19366 | 39049 ft | 517 kts | 159° |
| 2026-05-05 08:31 | -24.58383 | -55.15368 | 39053 ft | 517 kts | 159° |
| 2026-05-05 08:31 | -24.64605 | -55.11356 | 39053 ft | 517 kts | 159° |
| 2026-05-05 08:32 | -24.70813 | -55.07350 | 39042 ft | 516 kts | 159° |
| 2026-05-05 08:32 | -24.76959 | -55.03378 | 39047 ft | 516 kts | 159° |
| 2026-05-05 08:33 | -24.83154 | -54.99371 | 39052 ft | 517 kts | 159° |
| 2026-05-05 08:33 | -24.89356 | -54.95352 | 39077 ft | 516 kts | 159° |
| 2026-05-05 08:34 | -24.95517 | -54.91254 | 39053 ft | 519 kts | 157° |
| 2026-05-05 08:34 | -25.01617 | -54.87008 | 39048 ft | 516 kts | 159° |
| 2026-05-05 08:35 | -25.07840 | -54.83034 | 39043 ft | 515 kts | 159° |
| 2026-05-05 08:35 | -25.14025 | -54.79027 | 39054 ft | 516 kts | 159° |
| 2026-05-05 08:36 | -25.20182 | -54.75068 | 39059 ft | 516 kts | 159° |
| 2026-05-05 08:36 | -25.26374 | -54.71059 | 39057 ft | 515 kts | 159° |
| 2026-05-05 08:37 | -25.32568 | -54.67059 | 39074 ft | 515 kts | 159° |
| 2026-05-05 08:37 | -25.38758 | -54.63046 | 39052 ft | 515 kts | 159° |
| 2026-05-05 08:38 | -25.44945 | -54.59023 | 39050 ft | 517 kts | 158° |
| 2026-05-05 08:38 | -25.47896 | -54.56670 | 39038 ft | 529 kts | 149° |
| 2026-05-05 08:38 | -25.50569 | -54.53899 | 39039 ft | 539 kts | 142° |
| 2026-05-05 08:38 | -25.53012 | -54.50616 | 39039 ft | 550 kts | 134° |
| 2026-05-05 08:39 | -25.55025 | -54.47039 | 39046 ft | 560 kts | 126° |
| 2026-05-05 08:39 | -25.57771 | -54.38849 | 39038 ft | 577 kts | 109° |
| 2026-05-05 08:40 | -25.58543 | -54.29889 | 39057 ft | 589 kts | 95° |
| 2026-05-05 08:40 | -25.58513 | -54.25395 | 38380 ft | 578 kts | 94° |
| 2026-05-05 08:40 | -25.58478 | -54.21006 | 37709 ft | 561 kts | 94° |
| 2026-05-05 08:40 | -25.58530 | -54.16764 | 37073 ft | 541 kts | 95° |
| 2026-05-05 08:41 | -25.58602 | -54.12649 | 36472 ft | 524 kts | 95° |
| 2026-05-05 08:41 | -25.58616 | -54.08669 | 35867 ft | 513 kts | 94° |
| 2026-05-05 08:41 | -25.58604 | -54.04747 | 35245 ft | 506 kts | 93° |
| 2026-05-05 08:41 | -25.58624 | -54.00861 | 34609 ft | 503 kts | 94° |
| 2026-05-05 08:42 | -25.58664 | -53.97028 | 34053 ft | 503 kts | 93° |
| 2026-05-05 08:42 | -25.58683 | -53.93161 | 33679 ft | 503 kts | 93° |
| 2026-05-05 08:42 | -25.58687 | -53.89251 | 32977 ft | 513 kts | 92° |
| 2026-05-05 08:42 | -25.58698 | -53.85282 | 32280 ft | 516 kts | 92° |
| 2026-05-05 08:43 | -25.58718 | -53.81282 | 31594 ft | 517 kts | 92° |
| 2026-05-05 08:43 | -25.58736 | -53.77303 | 30914 ft | 518 kts | 92° |
| 2026-05-05 08:43 | -25.58748 | -53.73301 | 30227 ft | 517 kts | 92° |
| 2026-05-05 08:43 | -25.58775 | -53.69349 | 29531 ft | 507 kts | 92° |
| 2026-05-05 08:44 | -25.58810 | -53.65469 | 28888 ft | 502 kts | 92° |
| 2026-05-05 08:44 | -25.58835 | -53.61617 | 28248 ft | 497 kts | 92° |
| 2026-05-05 08:44 | -25.58851 | -53.57809 | 27617 ft | 491 kts | 91° |
| 2026-05-05 08:44 | -25.58871 | -53.54040 | 26989 ft | 486 kts | 91° |
| 2026-05-05 08:45 | -25.58894 | -53.50318 | 26368 ft | 481 kts | 91° |
| 2026-05-05 08:45 | -25.58914 | -53.46678 | 25760 ft | 476 kts | 91° |
| 2026-05-05 08:45 | -25.58930 | -53.43021 | 25155 ft | 471 kts | 91° |
| 2026-05-05 08:45 | -25.58946 | -53.39415 | 24552 ft | 466 kts | 90° |
| 2026-05-05 08:46 | -25.58963 | -53.35858 | 23960 ft | 461 kts | 90° |
| 2026-05-05 08:46 | -25.58977 | -53.32327 | 23325 ft | 456 kts | 90° |
| 2026-05-05 08:46 | -25.58990 | -53.28837 | 22743 ft | 450 kts | 90° |
| 2026-05-05 08:46 | -25.59002 | -53.25381 | 22164 ft | 446 kts | 90° |
| 2026-05-05 08:47 | -25.59014 | -53.21971 | 21594 ft | 441 kts | 90° |
| 2026-05-05 08:47 | -25.59025 | -53.18595 | 21029 ft | 436 kts | 91° |
| 2026-05-05 08:47 | -25.59035 | -53.15252 | 20470 ft | 432 kts | 91° |
| 2026-05-05 08:47 | -25.59203 | -53.11961 | 19868 ft | 426 kts | 101° |
| 2026-05-05 08:48 | -25.60198 | -53.08902 | 19320 ft | 416 kts | 119° |
| 2026-05-05 08:48 | -25.61896 | -53.06373 | 18784 ft | 407 kts | 137° |
| 2026-05-05 08:48 | -25.64135 | -53.04522 | 18245 ft | 398 kts | 154° |
| 2026-05-05 08:48 | -25.66694 | -53.03467 | 17708 ft | 389 kts | 169° |
| 2026-05-05 08:49 | -25.69344 | -53.02967 | 17218 ft | 386 kts | 173° |
| 2026-05-05 08:49 | -25.71962 | -53.02517 | 16707 ft | 385 kts | 173° |
| 2026-05-05 08:49 | -25.74640 | -53.02048 | 16194 ft | 383 kts | 173° |
| 2026-05-05 08:49 | -25.77227 | -53.01584 | 15691 ft | 380 kts | 172° |
| 2026-05-05 08:50 | -25.79836 | -53.01119 | 15192 ft | 378 kts | 172° |
| 2026-05-05 08:50 | -25.82427 | -53.00662 | 14691 ft | 376 kts | 172° |
| 2026-05-05 08:50 | -25.85011 | -53.00205 | 14203 ft | 374 kts | 172° |
| 2026-05-05 08:50 | -25.87572 | -52.99749 | 13683 ft | 372 kts | 172° |
| 2026-05-05 08:51 | -25.90119 | -52.99296 | 13188 ft | 370 kts | 172° |
| 2026-05-05 08:51 | -25.92663 | -52.98844 | 12699 ft | 370 kts | 172° |
| 2026-05-05 08:51 | -25.95195 | -52.98394 | 12215 ft | 369 kts | 172° |
| 2026-05-05 08:51 | -25.97734 | -52.97942 | 11727 ft | 368 kts | 172° |
| 2026-05-05 08:52 | -26.00239 | -52.97496 | 11249 ft | 356 kts | 172° |
| 2026-05-05 08:52 | -26.02606 | -52.97076 | 10797 ft | 334 kts | 172° |
| 2026-05-05 08:52 | -26.04815 | -52.96682 | 10374 ft | 317 kts | 172° |
| 2026-05-05 08:52 | -26.06951 | -52.96302 | 9963 ft | 306 kts | 172° |
| 2026-05-05 08:53 | -26.09026 | -52.95933 | 9550 ft | 300 kts | 172° |
| 2026-05-05 08:53 | -26.11089 | -52.95567 | 9164 ft | 300 kts | 172° |
| 2026-05-05 08:53 | -26.13155 | -52.95198 | 8768 ft | 301 kts | 172° |
| 2026-05-05 08:53 | -26.15222 | -52.94829 | 8366 ft | 301 kts | 172° |
| 2026-05-05 08:54 | -26.17311 | -52.94455 | 7970 ft | 300 kts | 172° |
| 2026-05-05 08:54 | -26.19365 | -52.94089 | 7573 ft | 298 kts | 172° |
| 2026-05-05 08:54 | -26.21405 | -52.93725 | 7182 ft | 295 kts | 172° |
| 2026-05-05 08:54 | -26.23422 | -52.93365 | 6801 ft | 292 kts | 173° |
| 2026-05-05 08:55 | -26.25421 | -52.92980 | 6369 ft | 291 kts | 169° |
| 2026-05-05 08:55 | -26.27208 | -52.91957 | 5953 ft | 287 kts | 139° |
| 2026-05-05 08:55 | -26.28463 | -52.90297 | 6013 ft | 277 kts | 126° |
| 2026-05-05 08:55 | -26.29504 | -52.88643 | 5730 ft | 252 kts | 123° |
| 2026-05-05 08:56 | -26.30461 | -52.87052 | 5495 ft | 244 kts | 121° |
| 2026-05-05 08:56 | -26.30985 | -52.85288 | 5204 ft | 241 kts | 89° |
| 2026-05-05 08:56 | -26.30615 | -52.83533 | 5240 ft | 233 kts | 60° |
| 2026-05-05 08:56 | -26.29731 | -52.82037 | 5288 ft | 231 kts | 50° |
| 2026-05-05 08:57 | -26.28785 | -52.80586 | 5136 ft | 232 kts | 49° |
| 2026-05-05 08:57 | -26.27874 | -52.79191 | 4785 ft | 214 kts | 51° |
| 2026-05-05 08:57 | -26.27040 | -52.77868 | 4345 ft | 204 kts | 51° |
| 2026-05-05 08:57 | -26.26270 | -52.76617 | 4054 ft | 181 kts | 52° |
| 2026-05-05 08:58 | -26.25646 | -52.75562 | 3881 ft | 147 kts | 52° |
| 2026-05-05 08:58 | -26.25092 | -52.74700 | 3672 ft | 128 kts | 47° |
| 2026-05-05 08:58 | -26.24571 | -52.73928 | 3561 ft | 125 kts | 49° |
| 2026-05-05 08:58 | -26.24064 | -52.73137 | 3385 ft | 126 kts | 51° |
| 2026-05-05 08:59 | -26.23580 | -52.72353 | 3234 ft | 123 kts | 51° |
| 2026-05-05 08:59 | -26.23074 | -52.71579 | 3052 ft | 125 kts | 52° |
| 2026-05-05 08:59 | -26.22572 | -52.70786 | 2884 ft | 126 kts | 54° |
| 2026-05-05 08:59 | -26.22065 | -52.69992 | 2716 ft | 123 kts | 55° |
| 2026-05-05 09:00 | -26.21672 | -52.69384 | 2702 ft | 54 kts | 53° |
| 2026-05-05 09:00 | -26.21585 | -52.69237 | 2697 ft | 11 kts | 86° |
| 2026-05-05 09:00 | -26.21629 | -52.69189 | 2698 ft | 4 kts | 153° |
| 2026-05-05 09:00 | -26.21646 | -52.69202 | 2699 ft | 6 kts | 209° |
| 2026-05-05 09:01 | -26.21666 | -52.69196 | 2700 ft | 0 kts | 143° |